New Hebron, Illinois
Current Conditions -  °F | °C
As of 7:55 AM on Friday 31 Oct 2014 (Local Time) from KRSV Reporting Station
Overcast Overcast  
Wind Chill: 42°   Ceiling: 6500
Heat Index: 47°   Visibility: 10mi
Dew Point: 44°   Wind: 13mph
Humidity: 87%   Direction: 320°NW
Pressure: 30.08"   Gusts: NA
Location:  39.0131°N, 87.7657°W
Report Text: KRSV 311255Z AUTO 32011KT 10SM SCT048 OVC065 09/07 A3008 RMK AO2 T00860066
Loading
Personal Weather Stations






























Interactive Weather Map
Tropical Storm Tracking
New forecast layout! Learn more

10-Day Weather Forecast

Advertisements
Track Severe Weather on mobile